Time;durP1;ratioP1;P1;durP2;ratioP2;P2;SDS_P1;SDS_P2;PMS_P1;PMS_P2;Temp;Humidity;BMP_temperature;BMP_pressure;BME280_temperature;BME280_humidity;BME280_pressure;Samples;Min_cycle;Max_cycle;Signal;HPM_P1;HPM_P2
2023/12/29 00:02:47;;;;;;;28.10;14.00;;;;;;;4.70;100.00;100494.50;6258117;28;20052;-81
2023/12/29 00:05:48;;;;;;;25.17;13.48;;;;;;;4.71;100.00;100496.19;6251665;28;20410;-83
2023/12/29 00:08:49;;;;;;;27.38;14.82;;;;;;;4.70;100.00;100497.91;6258219;28;20053;-81
2023/12/29 00:11:51;;;;;;;23.52;13.13;;;;;;;4.77;100.00;100507.19;6292061;28;20493;-81
2023/12/29 00:14:52;;;;;;;27.50;14.10;;;;;;;4.79;100.00;100510.56;6275708;28;20132;-81
2023/12/29 00:17:53;;;;;;;30.45;14.63;;;;;;;4.81;100.00;100513.09;6266418;28;20073;-81
2023/12/29 00:20:56;;;;;;;22.95;14.02;;;;;;;4.80;100.00;100520.03;6288338;28;20523;-83
2023/12/29 00:23:57;;;;;;;31.00;14.88;;;;;;;4.80;100.00;100512.28;6290725;28;20051;-81
2023/12/29 00:26:58;;;;;;;24.27;13.30;;;;;;;4.81;100.00;100507.94;6262937;28;20044;-81
2023/12/29 00:29:59;;;;;;;25.73;13.38;;;;;;;4.81;100.00;100506.19;6269400;28;20052;-81
2023/12/29 00:33:00;;;;;;;25.58;14.15;;;;;;;4.68;100.00;100497.13;6292748;28;20493;-83
2023/12/29 00:36:01;;;;;;;27.67;14.50;;;;;;;4.76;100.00;100502.91;6267696;28;20117;-80
2023/12/29 00:39:02;;;;;;;27.77;14.60;;;;;;;4.66;100.00;100490.31;6269654;28;20052;-83
2023/12/29 00:42:04;;;;;;;28.98;14.90;;;;;;;4.71;100.00;100496.19;6262857;28;20053;-83
2023/12/29 00:45:06;;;;;;;20.20;12.38;;;;;;;4.77;100.00;100504.59;6258956;28;20421;-81
2023/12/29 00:48:07;;;;;;;28.27;13.83;;;;;;;4.77;100.00;100506.34;6293449;28;20128;-83
2023/12/29 00:51:08;;;;;;;28.83;14.02;;;;;;;4.71;100.00;100512.53;6289867;28;20040;-80
2023/12/29 00:54:09;;;;;;;28.55;14.05;;;;;;;4.84;100.00;100506.13;6260638;28;20505;-80
2023/12/29 00:57:10;;;;;;;23.33;14.25;;;;;;;4.90;100.00;100504.22;6255282;28;20124;-80
2023/12/29 01:00:12;;;;;;;24.02;14.02;;;;;;;4.80;100.00;100504.50;6296307;28;20408;-84
2023/12/29 01:03:13;;;;;;;;;;;;;;;4.68;100.00;100497.13;6262294;28;20076;-84
2023/12/29 01:06:14;;;;;;;20.10;12.60;;;;;;;4.60;100.00;100489.59;6261514;28;19921;-80
2023/12/29 01:09:15;;;;;;;24.48;14.07;;;;;;;4.61;100.00;100490.44;6279434;28;20063;-80
2023/12/29 01:12:16;;;;;;;23.38;12.85;;;;;;;4.66;100.00;100493.75;6274469;28;20065;-81
2023/12/29 01:15:17;;;;;;;20.17;12.93;;;;;;;4.57;100.00;100491.41;6284957;28;20797;-81
2023/12/29 01:18:18;;;;;;;21.48;12.52;;;;;;;4.58;100.00;100506.03;6266518;28;20131;-80
2023/12/29 01:21:19;;;;;;;18.77;12.02;;;;;;;4.54;100.00;100496.69;6259531;28;20048;-80
2023/12/29 01:24:22;;;;;;;29.65;14.60;;;;;;;4.66;100.00;100500.66;6279868;28;20628;-82
2023/12/29 01:27:23;;;;;;;26.60;14.30;;;;;;;4.72;100.00;100500.47;6297899;28;20174;-83
2023/12/29 01:30:24;;;;;;;24.45;13.10;;;;;;;4.67;100.00;100505.75;6274778;28;20060;-83
2023/12/29 01:33:25;;;;;;;24.13;12.68;;;;;;;4.71;100.00;100497.00;6291091;28;20147;-84
2023/12/29 01:36:26;;;;;;;25.48;13.43;;;;;;;4.65;100.00;100486.84;6265852;28;20059;-83
2023/12/29 01:39:27;;;;;;;33.30;13.60;;;;;;;4.56;100.00;100477.66;6267183;28;20344;-80
2023/12/29 01:42:28;;;;;;;25.00;13.43;;;;;;;4.67;100.00;100476.47;6266583;28;20056;-80
2023/12/29 01:45:29;;;;;;;23.13;13.88;;;;;;;4.74;100.00;100475.41;6269862;28;20413;-83
2023/12/29 01:48:30;;;;;;;24.80;14.07;;;;;;;4.62;100.00;100461.94;6270908;28;20136;-83
2023/12/29 01:51:32;;;;;;;20.13;12.48;;;;;;;4.61;100.00;100459.41;6265944;28;20048;-80
2023/12/29 01:54:35;;;;;;;25.98;13.32;;;;;;;4.66;100.00;100465.31;6275654;28;20515;-81
2023/12/29 01:57:38;;;;;;;20.85;12.25;;;;;;;4.57;100.00;100450.94;6277344;28;20521;-80
2023/12/29 02:00:39;;;;;;;20.88;12.02;;;;;;;4.58;100.00;100455.19;6284152;28;20057;-83
2023/12/29 02:03:40;;;;;;;24.52;13.38;;;;;;;4.68;100.00;100449.75;6269760;28;20048;-81
2023/12/29 02:06:41;;;;;;;21.00;12.00;;;;;;;4.57;100.00;100450.06;6273729;28;20066;-84
2023/12/29 02:09:44;;;;;;;22.05;12.52;;;;;;;4.41;100.00;100445.34;6270609;28;20041;-83
2023/12/29 02:12:47;;;;;;;;;;;;;;;4.57;100.00;100434.53;6283308;28;20079;-81
2023/12/29 02:15:52;;;;;;;20.38;10.93;;;;;;;4.43;100.00;100437.56;6269800;28;20096;-80
2023/12/29 02:18:55;;;;;;;29.92;13.07;;;;;;;4.27;100.00;100431.16;6272220;28;20080;-83
2023/12/29 02:21:56;;;;;;;23.67;13.32;;;;;;;4.32;100.00;100427.53;6268917;28;20053;-83
2023/12/29 02:24:57;;;;;;;24.88;13.63;;;;;;;4.15;100.00;100432.34;6254042;28;20447;-84
2023/12/29 02:28:19;;;;;;;28.10;14.35;;;;;;;4.14;100.00;100422.88;6286929;28;20063;-80
2023/12/29 02:31:23;;;;;;;;;;;;;;;4.29;100.00;100426.78;6272015;28;20481;-84
2023/12/29 02:34:25;;;;;;;21.83;13.13;;;;;;;4.31;100.00;100431.00;6286026;28;19924;-81
2023/12/29 02:37:27;;;;;;;29.52;13.82;;;;;;;4.33;100.00;100441.31;6276647;28;20119;-80
2023/12/29 02:40:28;;;;;;;24.05;12.73;;;;;;;4.21;100.00;100433.00;6280662;28;20059;-81
2023/12/29 02:43:32;;;;;;;24.67;13.55;;;;;;;4.16;100.00;100421.09;6265548;28;20044;-83
2023/12/29 02:46:32;;;;;;;23.23;12.82;;;;;;;4.31;100.00;100420.69;6253475;28;20128;-84
2023/12/29 02:49:33;;;;;;;24.08;13.45;;;;;;;4.29;100.00;100424.19;6254652;28;20048;-80
2023/12/29 02:52:34;;;;;;;29.42;13.65;;;;;;;4.23;100.00;100432.97;6278031;28;20130;-81
2023/12/29 02:55:35;;;;;;;21.67;12.00;;;;;;;4.15;100.00;100422.00;6269897;28;20131;-83
2023/12/29 02:58:36;;;;;;;20.70;12.07;;;;;;;4.00;100.00;100431.88;6277979;28;20064;-81
2023/12/29 03:01:37;;;;;;;28.83;14.70;;;;;;;4.14;100.00;100426.34;6295604;28;20053;-81
2023/12/29 03:04:38;;;;;;;31.17;13.68;;;;;;;4.00;100.00;100434.47;6295388;28;20397;-80
2023/12/29 03:07:40;;;;;;;22.60;13.07;;;;;;;3.92;100.00;100422.66;6277682;28;20086;-80
2023/12/29 03:10:41;;;;;;;28.17;14.50;;;;;;;4.09;100.00;100417.03;6277007;28;20075;-80
2023/12/29 03:13:42;;;;;;;32.45;14.20;;;;;;;4.08;100.00;100421.34;6277192;28;20052;-80
2023/12/29 03:16:45;;;;;;;26.70;13.93;;;;;;;3.91;100.00;100414.06;6295304;28;20404;-80
2023/12/29 03:19:46;;;;;;;32.22;14.20;;;;;;;4.12;100.00;100427.25;6294967;28;20066;-80
2023/12/29 03:22:47;;;;;;;29.45;14.40;;;;;;;4.01;100.00;100423.22;6279375;28;20425;-80
2023/12/29 03:25:48;;;;;;;23.88;13.15;;;;;;;4.09;100.00;100422.19;6252601;28;20057;-84
2023/12/29 03:28:50;;;;;;;26.50;12.85;;;;;;;4.15;100.00;100415.09;6285571;28;20057;-84
2023/12/29 03:31:50;;;;;;;27.00;14.17;;;;;;;3.94;100.00;100411.41;6259486;28;20257;-85
2023/12/29 03:34:51;;;;;;;21.10;13.00;;;;;;;3.93;100.00;100430.38;6291254;28;20390;-84
2023/12/29 03:37:53;;;;;;;23.67;14.10;;;;;;;4.04;100.00;100438.66;6294988;28;20044;-81
2023/12/29 03:40:53;;;;;;;24.00;13.10;;;;;;;4.26;100.00;100440.63;6292735;28;20071;-81
2023/12/29 03:43:56;;;;;;;25.85;14.63;;;;;;;3.96;100.00;100438.03;6275145;28;20493;-81
2023/12/29 03:46:57;;;;;;;25.13;13.68;;;;;;;4.01;100.00;100438.72;6252358;28;20056;-84
2023/12/29 03:49:57;;;;;;;29.35;15.00;;;;;;;4.29;100.00;100443.13;6252659;28;20045;-80
2023/12/29 03:52:58;;;;;;;24.80;13.63;;;;;;;4.33;100.00;100441.31;6288480;28;20055;-85
2023/12/29 03:56:05;;;;;;;22.65;13.48;;;;;;;4.30;100.00;100442.22;6276929;28;20049;-81
2023/12/29 03:59:06;;;;;;;24.08;14.18;;;;;;;4.33;100.00;100434.41;6285269;28;20495;-80
2023/12/29 04:02:09;;;;;;;26.35;13.88;;;;;;;4.29;100.00;100435.38;6252221;28;20049;-84
2023/12/29 04:05:10;;;;;;;29.15;14.35;;;;;;;4.33;100.00;100441.31;6282616;28;20045;-85
2023/12/29 04:08:13;;;;;;;23.42;13.10;;;;;;;4.13;100.00;100439.28;6290443;28;20041;-81
2023/12/29 04:11:13;;;;;;;28.20;14.85;;;;;;;4.14;100.00;100440.97;6275448;28;20500;-81
2023/12/29 04:14:17;;;;;;;27.20;14.48;;;;;;;4.08;100.00;100454.03;6276825;28;20059;-80
2023/12/29 04:17:21;;;;;;;23.85;13.15;;;;;;;4.12;100.00;100453.94;6294011;28;20128;-84
2023/12/29 04:20:21;;;;;;;33.25;14.10;;;;;;;4.18;100.00;100438.28;6275899;28;20044;-80
2023/12/29 04:23:25;;;;;;;31.75;15.73;;;;;;;4.03;100.00;100430.94;6278207;28;20140;-80
2023/12/29 04:26:26;;;;;;;29.15;16.33;;;;;;;4.05;100.00;100426.59;6271709;28;20044;-81
2023/12/29 04:29:27;;;;;;;29.15;15.52;;;;;;;4.07;100.00;100421.38;6293742;28;20241;-84
2023/12/29 04:32:28;;;;;;;29.90;14.73;;;;;;;3.89;100.00;100425.31;6294027;28;20489;-81
2023/12/29 04:35:29;;;;;;;28.77;13.88;;;;;;;3.70;100.00;100419.81;6275580;28;20048;-81
2023/12/29 04:38:32;;;;;;;40.75;19.13;;;;;;;3.81;100.00;100423.81;6274043;28;20591;-81
2023/12/29 04:41:36;;;;;;;29.10;14.95;;;;;;;3.73;100.00;100419.75;6274426;28;20052;-84
2023/12/29 04:44:37;;;;;;;28.83;15.05;;;;;;;3.63;100.00;100419.97;6264362;28;20048;-80
2023/12/29 04:47:38;;;;;;;25.15;14.88;;;;;;;3.75;100.00;100428.28;6281353;28;20051;-84
2023/12/29 04:50:39;;;;;;;37.97;17.05;;;;;;;3.71;100.00;100435.25;6260398;28;20049;-80
2023/12/29 04:53:42;;;;;;;36.63;20.13;;;;;;;3.91;100.00;100446.78;6273910;28;20049;-80
2023/12/29 04:56:44;;;;;;;40.97;18.65;;;;;;;3.88;100.00;100449.44;6278293;28;20072;-84
2023/12/29 04:59:45;;;;;;;28.20;15.65;;;;;;;3.87;100.00;100446.03;6270374;28;20048;-80
2023/12/29 05:02:48;;;;;;;33.42;17.17;;;;;;;3.81;100.00;100444.44;6282371;28;20098;-80
2023/12/29 05:05:49;;;;;;;35.58;17.92;;;;;;;3.86;100.00;100446.91;6280188;28;20062;-85
2023/12/29 05:08:49;;;;;;;31.88;18.02;;;;;;;3.79;100.00;100441.06;6273488;28;20505;-80
2023/12/29 05:11:53;;;;;;;35.90;17.58;;;;;;;4.00;100.00;100449.97;6257889;28;20064;-84
2023/12/29 05:14:53;;;;;;;35.78;17.98;;;;;;;4.03;100.00;100459.34;6256458;28;20053;-80
2023/12/29 05:17:54;;;;;;;36.42;18.98;;;;;;;4.10;100.00;100468.63;6257099;28;20144;-84
2023/12/29 05:20:55;;;;;;;31.83;17.35;;;;;;;3.84;100.00;100456.41;6277402;28;20048;-84
2023/12/29 05:23:56;;;;;;;35.50;16.58;;;;;;;3.86;100.00;100466.72;6274443;28;20049;-84
2023/12/29 05:26:58;;;;;;;38.08;20.70;;;;;;;3.89;100.00;100464.91;6286863;28;20048;-83
2023/12/29 05:29:59;;;;;;;36.65;18.48;;;;;;;3.89;100.00;100459.75;6268187;28;20098;-84
2023/12/29 05:33:00;;;;;;;36.08;17.35;;;;;;;4.02;100.00;100484.31;6296029;28;20068;-80
2023/12/29 05:36:08;;;;;;;40.20;21.80;;;;;;;4.00;100.00;100488.69;6294563;28;20503;-84
2023/12/29 05:39:09;;;;;;;50.95;21.77;;;;;;;3.91;100.00;100476.03;6297256;28;20509;-83
2023/12/29 05:42:10;;;;;;;35.35;19.02;;;;;;;3.82;100.00;100484.84;6277074;28;20131;-85
2023/12/29 05:45:15;;;;;;;30.60;16.67;;;;;;;3.69;100.00;100480.91;6284430;28;20167;-84
2023/12/29 05:48:16;;;;;;;30.33;17.60;;;;;;;3.67;100.00;100474.09;6273029;28;20053;-85
2023/12/29 05:51:16;;;;;;;40.15;20.65;;;;;;;3.81;100.00;100469.44;6270772;28;20048;-80
2023/12/29 05:54:17;;;;;;;41.50;21.05;;;;;;;3.73;100.00;100474.78;6282680;28;20116;-80
2023/12/29 05:57:18;;;;;;;41.88;19.98;;;;;;;3.49;100.00;100480.56;6270850;28;20136;-80
2023/12/29 06:00:22;;;;;;;43.72;20.48;;;;;;;3.55;100.00;100465.78;6274019;28;20545;-84
2023/12/29 06:03:23;;;;;;;26.90;15.60;;;;;;;3.54;100.00;100479.56;6272433;28;20060;-84
2023/12/29 06:06:25;;;;;;;39.72;20.05;;;;;;;3.70;100.00;100484.34;6285161;28;20067;-80
2023/12/29 06:09:26;;;;;;;32.53;17.48;;;;;;;3.50;100.00;100459.91;6259853;28;20412;-84
2023/12/29 06:12:28;;;;;;;37.20;17.73;;;;;;;3.57;100.00;100483.81;6277833;28;20088;-79
2023/12/29 06:15:29;;;;;;;35.50;18.48;;;;;;;3.69;100.00;100495.56;6279219;28;20052;-84
2023/12/29 06:18:29;;;;;;;35.72;18.23;;;;;;;3.48;100.00;100495.22;6265602;28;20041;-80
2023/12/29 06:21:30;;;;;;;40.85;19.25;;;;;;;3.60;100.00;100494.03;6287810;28;20165;-80
2023/12/29 06:24:35;;;;;;;39.63;19.30;;;;;;;3.43;100.00;100491.88;6278893;28;20045;-84
2023/12/29 06:27:37;;;;;;;33.17;17.27;;;;;;;3.68;100.00;100497.25;6296559;28;20508;-83
2023/12/29 06:30:38;;;;;;;38.25;17.58;;;;;;;3.53;100.00;100493.34;6297023;28;20086;-81
2023/12/29 06:33:43;;;;;;;38.92;18.27;;;;;;;3.69;100.00;100488.66;6278667;28;20048;-81
2023/12/29 06:36:44;;;;;;;26.33;14.48;;;;;;;3.49;100.00;100480.56;6277741;28;20048;-81
2023/12/29 06:39:45;;;;;;;34.92;17.02;;;;;;;3.57;100.00;100465.75;6276527;28;20732;-81
2023/12/29 06:42:46;;;;;;;24.60;15.02;;;;;;;3.28;100.00;100440.69;6277838;28;20044;-82
2023/12/29 06:45:47;;;;;;;30.38;16.27;;;;;;;3.29;100.00;100442.34;6272060;28;20049;-80
2023/12/29 06:48:49;;;;;;;34.13;18.58;;;;;;;3.47;100.00;100459.13;6278454;28;20075;-84
2023/12/29 06:51:53;;;;;;;36.38;19.25;;;;;;;3.37;100.00;100468.81;6278178;28;20484;-85
2023/12/29 06:54:55;;;;;;;38.00;18.63;;;;;;;3.33;100.00;100477.50;6282059;28;20048;-81
2023/12/29 06:57:56;;;;;;;32.13;14.20;;;;;;;3.37;100.00;100476.56;6265892;28;20099;-83
2023/12/29 07:00:57;;;;;;;32.83;18.05;;;;;;;3.52;100.00;100467.56;6269929;28;20510;-83
2023/12/29 07:03:58;;;;;;;27.73;16.33;;;;;;;3.43;100.00;100455.75;6277519;28;20049;-84
2023/12/29 07:07:03;;;;;;;31.55;16.83;;;;;;;3.31;100.00;100450.91;6286138;28;20052;-85
2023/12/29 07:10:07;;;;;;;30.90;18.65;;;;;;;3.48;100.00;100468.53;6276416;28;20057;-82
2023/12/29 07:13:10;;;;;;;36.35;18.30;;;;;;;3.43;100.00;100466.91;6267442;28;20059;-83
2023/12/29 07:16:12;;;;;;;28.63;17.77;;;;;;;3.47;100.00;100465.13;6277462;28;20127;-82
2023/12/29 07:19:12;;;;;;;31.83;16.35;;;;;;;3.30;100.00;100460.38;6271080;28;20342;-82
2023/12/29 07:22:13;;;;;;;34.40;17.77;;;;;;;3.54;100.00;100477.00;6265443;28;20076;-85
2023/12/29 07:25:15;;;;;;;38.17;19.90;;;;;;;3.74;100.00;100485.94;6264014;28;20099;-82
2023/12/29 07:28:16;;;;;;;27.13;15.25;;;;;;;3.77;100.00;100488.47;6252605;28;20053;-83
2023/12/29 07:31:16;;;;;;;25.77;15.07;;;;;;;3.78;100.00;100493.56;6269030;28;20052;-84
2023/12/29 07:34:17;;;;;;;27.13;14.93;;;;;;;3.81;100.00;100497.81;6292711;28;20048;-85
2023/12/29 07:37:19;;;;;;;30.98;17.50;;;;;;;3.76;100.00;100499.66;6277540;28;20485;-83
2023/12/29 07:40:20;;;;;;;26.45;13.05;;;;;;;3.77;100.00;100494.47;6270734;28;20351;-86
2023/12/29 07:43:21;;;;;;;33.88;17.40;;;;;;;3.80;100.00;100489.22;6268309;28;20044;-82
2023/12/29 07:46:26;;;;;;;29.70;17.80;;;;;;;3.72;100.00;100498.03;6254447;28;20083;-82
2023/12/29 07:49:29;;;;;;;31.42;17.80;;;;;;;3.80;100.00;100501.28;6276644;28;20408;-82
2023/12/29 07:52:31;;;;;;;36.42;17.83;;;;;;;3.82;100.00;100502.09;6262751;28;20191;-81
2023/12/29 07:55:32;;;;;;;35.33;16.33;;;;;;;3.92;100.00;100495.78;6263903;28;20139;-83
2023/12/29 07:58:33;;;;;;;32.85;17.30;;;;;;;3.94;100.00;100485.44;6265191;28;20155;-83
2023/12/29 08:01:34;;;;;;;31.38;17.38;;;;;;;4.10;100.00;100491.88;6289506;28;20493;-81
2023/12/29 08:04:35;;;;;;;36.95;21.10;;;;;;;4.33;100.00;100508.47;6294548;28;20048;-82
2023/12/29 08:07:40;;;;;;;31.33;16.90;;;;;;;4.10;100.00;100497.03;6257932;28;20052;-82
2023/12/29 08:10:43;;;;;;;29.80;17.35;;;;;;;4.29;100.00;100505.13;6268384;28;20424;-81
2023/12/29 08:13:46;;;;;;;43.50;18.55;;;;;;;4.40;100.00;100516.00;6255744;28;20045;-82
2023/12/29 08:16:47;;;;;;;33.53;17.35;;;;;;;4.55;100.00;100524.19;6255613;28;20051;-82
2023/12/29 08:19:48;;;;;;;37.10;18.25;;;;;;;4.56;100.00;100525.91;6279201;28;20048;-83
2023/12/29 08:22:51;;;;;;;20.08;12.13;;;;;;;4.47;100.00;100532.19;6266607;28;20608;-81
2023/12/29 08:25:52;;;;;;;28.13;17.10;;;;;;;4.69;100.00;100523.81;6287226;28;20718;-81
2023/12/29 08:28:53;;;;;;;35.60;18.92;;;;;;;4.76;100.00;100515.00;6252487;28;20076;-80
2023/12/29 08:31:57;;;;;;;27.27;15.52;;;;;;;4.79;100.00;100520.91;6266993;28;20493;-81
2023/12/29 08:34:57;;;;;;;28.15;15.57;;;;;;;4.85;100.00;100506.94;6267673;28;20049;-81
2023/12/29 08:37:58;;;;;;;30.23;17.88;;;;;;;5.13;100.00;100514.72;6260301;28;20045;-81
2023/12/29 08:41:00;;;;;;;26.88;14.52;;;;;;;5.03;100.00;100508.16;6244433;28;20077;-80
2023/12/29 08:44:01;;;;;;;33.90;17.10;;;;;;;5.09;100.00;100489.00;6245919;28;20757;-85
2023/12/29 08:47:02;;;;;;;36.47;16.60;;;;;;;5.01;100.00;100477.16;6267767;28;20048;-82
2023/12/29 08:50:04;;;;;;;38.03;18.65;;;;;;;5.36;100.00;100501.06;6268103;28;20067;-83
2023/12/29 08:53:05;;;;;;;35.93;17.43;;;;;;;5.61;100.00;100513.19;6265336;28;20106;-81
2023/12/29 08:56:06;;;;;;;31.40;16.90;;;;;;;5.41;100.00;100501.72;6266921;28;20045;-84
2023/12/29 08:59:07;;;;;;;29.50;16.08;;;;;;;5.43;100.00;100505.13;6262093;28;20049;-81
2023/12/29 09:02:08;;;;;;;25.88;14.43;;;;;;;5.35;100.00;100506.28;6243217;28;20053;-80
2023/12/29 09:05:09;;;;;;;33.45;16.20;;;;;;;5.64;100.00;100513.94;6243990;28;20409;-82
2023/12/29 09:08:10;;;;;;;34.05;17.30;;;;;;;6.03;100.00;100510.94;6253939;28;20045;-83
2023/12/29 09:11:13;;;;;;;25.65;15.02;;;;;;;5.81;100.00;100492.66;6266575;28;20129;-80
2023/12/29 09:14:17;;;;;;;27.58;14.77;;;;;;;5.92;100.00;100499.22;6268809;28;20091;-84
2023/12/29 09:17:18;;;;;;;25.15;14.00;;;;;;;6.18;100.00;100485.38;6257979;28;20068;-87
2023/12/29 09:20:24;;;;;;;27.65;14.93;;;;;;;6.03;100.00;100472.06;6260877;28;20071;-82
2023/12/29 09:23:25;;;;;;;31.67;15.82;;;;;;;6.29;100.00;100480.63;6271593;28;20083;-81
2023/12/29 09:26:28;;;;;;;28.85;14.23;;;;;;;6.24;100.00;100456.66;6276417;28;20063;-81
2023/12/29 09:29:28;;;;;;;31.98;15.85;;;;;;;6.53;100.00;100483.25;6285461;28;20048;-81
2023/12/29 09:32:29;;;;;;;18.63;11.10;;;;;;;6.40;100.00;100498.38;6259997;28;20678;-82
2023/12/29 09:35:30;;;;;;;47.20;16.30;;;;;;;6.48;100.00;100496.34;6267972;28;20119;-80
2023/12/29 09:38:41;;;;;;;31.08;17.40;;;;;;;6.59;100.00;100472.63;6277100;28;20164;-82
2023/12/29 09:41:46;;;;;;;30.88;17.15;;;;;;;6.79;100.00;100497.78;6283255;28;20067;-81
2023/12/29 09:44:50;;;;;;;22.88;13.80;;;;;;;6.43;100.00;100483.56;6293522;28;20091;-81
2023/12/29 09:47:53;;;;;;;22.10;14.18;;;;;;;6.85;100.00;100480.25;6272603;28;20048;-83
2023/12/29 09:50:55;;;;;;;24.27;14.68;;;;;;;6.81;100.00;100472.66;6255058;28;20057;-81
2023/12/29 09:53:58;;;;;;;20.15;11.40;;;;;;;6.89;100.00;100477.53;6279238;28;20045;-80
2023/12/29 09:56:59;;;;;;;29.23;15.75;;;;;;;7.07;100.00;100474.22;6257058;28;20557;-80
2023/12/29 10:00:00;;;;;;;24.00;13.70;;;;;;;6.90;100.00;100469.72;6254480;28;20049;-80
2023/12/29 10:03:01;;;;;;;31.85;14.73;;;;;;;7.15;100.00;100471.34;6255400;28;20087;-82
2023/12/29 10:06:07;;;;;;;24.33;13.30;;;;;;;7.33;100.00;100467.13;6291711;28;20095;-84
2023/12/29 10:09:11;;;;;;;29.88;15.55;;;;;;;7.22;100.00;100468.41;6263564;28;20622;-82
2023/12/29 10:12:14;;;;;;;32.58;16.73;;;;;;;7.35;100.00;100457.53;6272032;28;20060;-81
2023/12/29 10:15:32;;;;;;;23.98;13.18;;;;;;;7.24;100.00;100452.78;6291471;28;20122;-82
2023/12/29 10:18:52;;;;;;;30.00;16.13;;;;;;;7.14;100.00;100441.09;6278949;28;20053;-82
2023/12/29 10:22:17;;;;;;;31.92;16.30;;;;;;;7.49;100.00;100449.19;6296091;28;20045;-83
2023/12/29 10:25:18;;;;;;;24.88;13.32;;;;;;;7.61;100.00;100431.31;6268405;28;20051;-84
2023/12/29 10:28:19;;;;;;;32.70;14.75;;;;;;;7.63;100.00;100426.06;6296472;28;20143;-83
2023/12/29 10:31:20;;;;;;;25.40;15.05;;;;;;;7.67;100.00;100418.06;6294638;28;20074;-83
2023/12/29 10:34:31;;;;;;;21.33;12.93;;;;;;;7.86;100.00;100425.06;6295384;28;20416;-81
2023/12/29 10:37:32;;;;;;;25.33;13.85;;;;;;;7.84;100.00;100411.28;6281280;28;20253;-82
2023/12/29 10:40:33;;;;;;;20.88;12.05;;;;;;;7.74;100.00;100405.69;6278658;28;20044;-81
2023/12/29 10:43:34;;;;;;;26.20;14.57;;;;;;;7.96;100.00;100405.56;6278379;28;20052;-81
2023/12/29 10:46:35;;;;;;;20.25;12.38;;;;;;;7.91;100.00;100402.34;6278150;28;20447;-80
2023/12/29 10:49:35;;;;;;;25.55;13.48;;;;;;;8.03;100.00;100412.19;6278279;28;20059;-82
2023/12/29 10:52:37;;;;;;;22.13;12.68;;;;;;;8.24;100.00;100412.97;6296059;28;20097;-81
2023/12/29 10:55:38;;;;;;;25.07;14.03;;;;;;;8.24;100.00;100405.16;6278058;28;20080;-81
2023/12/29 10:58:39;;;;;;;25.25;14.05;;;;;;;8.34;100.00;100403.00;6278380;28;20048;-81
2023/12/29 11:01:41;;;;;;;22.52;13.18;;;;;;;8.53;100.00;100387.41;6278094;28;20055;-81
2023/12/29 11:04:42;;;;;;;31.00;15.13;;;;;;;8.74;100.00;100387.28;6265612;28;20417;-84
2023/12/29 11:07:43;;;;;;;27.85;16.38;;;;;;;8.82;100.00;100388.59;6253144;28;20497;-83
2023/12/29 11:10:45;;;;;;;34.40;15.13;;;;;;;8.73;100.00;100373.47;6274806;28;20044;-82
2023/12/29 11:13:49;;;;;;;21.20;13.02;;;;;;;8.64;100.00;100371.28;6277309;28;20497;-84
2023/12/29 11:16:52;;;;;;;24.60;13.45;;;;;;;8.63;100.00;100372.22;6277566;28;20084;-80
2023/12/29 11:19:53;;;;;;;26.05;13.30;;;;;;;8.78;100.00;100365.41;6277503;28;20048;-84
2023/12/29 11:22:57;;;;;;;27.70;13.77;;;;;;;8.71;100.00;100362.28;6277153;28;20135;-86
2023/12/29 11:25:59;;;;;;;26.35;13.88;;;;;;;8.86;100.00;100355.47;6295400;28;20359;-84
2023/12/29 11:29:01;;;;;;;25.80;14.40;;;;;;;8.97;100.00;100354.94;6277496;28;20060;-85
2023/12/29 11:32:06;;;;;;;22.23;13.88;;;;;;;9.00;100.00;100345.22;6277664;28;20052;-84
2023/12/29 11:35:34;;;;;;;29.85;15.10;;;;;;;9.05;100.00;100334.59;6276529;28;20044;-83
2023/12/29 11:39:00;;;;;;;26.52;15.63;;;;;;;9.27;100.00;100345.59;6275264;28;20040;-84
2023/12/29 11:42:14;;;;;;;21.15;12.90;;;;;;;9.37;100.00;100342.50;6293600;28;20056;-84
2023/12/29 11:45:34;;;;;;;24.80;14.38;;;;;;;9.18;100.00;100327.00;6294207;28;20493;-83
2023/12/29 11:49:03;;;;;;;23.50;12.60;;;;;;;9.04;100.00;100341.56;6294737;28;20142;-81
2023/12/29 11:52:04;;;;;;;25.80;14.40;;;;;;;9.16;100.00;100331.44;6274590;28;20559;-81
2023/12/29 11:55:29;;;;;;;23.73;13.00;;;;;;;9.27;100.00;100334.34;6293363;28;20048;-82
2023/12/29 11:58:30;;;;;;;27.17;13.75;;;;;;;9.31;100.00;100330.66;6290812;28;20500;-84
2023/12/29 12:01:35;;;;;;;26.48;13.75;;;;;;;9.44;100.00;100342.13;6276588;28;20051;-83
2023/12/29 12:04:44;;;;;;;26.05;14.63;;;;;;;9.72;100.00;100340.69;6276374;28;20052;-85
2023/12/29 12:07:45;;;;;;;28.75;16.15;;;;;;;9.56;100.00;100334.59;6276742;28;20127;-82
2023/12/29 12:10:46;;;;;;;27.40;15.10;;;;;;;9.53;100.00;100347.78;6294559;28;20519;-84
2023/12/29 12:13:47;;;;;;;32.00;15.80;;;;;;;9.47;100.00;100355.00;6276385;28;20131;-83
2023/12/29 12:16:50;;;;;;;22.70;12.50;;;;;;;9.45;99.71;100354.25;6276580;28;20044;-84
2023/12/29 12:19:52;;;;;;;28.70;15.15;;;;;;;9.51;100.00;100347.84;6276664;28;20052;-82
2023/12/29 12:22:57;;;;;;;;;;;;;;;9.94;99.10;100331.72;6291647;28;20793;-85
2023/12/29 12:26:00;;;;;;;20.77;12.50;;;;;;;9.86;97.45;100327.78;6275688;28;19964;-85
2023/12/29 12:29:02;;;;;;;26.33;15.10;;;;;;;9.88;97.87;100322.44;6293233;28;20272;-85
2023/12/29 12:32:03;;;;;;;24.90;14.75;;;;;;;9.89;98.43;100309.34;6276191;28;20503;-81
2023/12/29 12:35:14;;;;;;;28.60;16.13;;;;;;;9.72;98.73;100306.81;6275168;28;20496;-87
2023/12/29 12:38:25;;;;;;;30.88;16.48;;;;;;;9.67;99.43;100314.84;6265991;28;20121;-84
2023/12/29 12:41:27;;;;;;;22.15;14.00;;;;;;;9.73;99.28;100300.66;6270816;28;20048;-84
2023/12/29 12:44:30;;;;;;;21.73;12.45;;;;;;;9.57;100.00;100292.81;6265385;28;20049;-84
2023/12/29 12:47:44;;;;;;;25.95;15.35;;;;;;;9.62;100.00;100287.38;6268043;28;20329;-80
2023/12/29 12:50:45;;;;;;;22.58;12.45;;;;;;;9.71;100.00;100273.84;6270180;28;20044;-83
2023/12/29 12:53:49;;;;;;;24.85;14.00;;;;;;;9.64;100.00;100272.53;6268207;28;20053;-81
2023/12/29 12:56:51;;;;;;;26.13;13.27;;;;;;;9.55;100.00;100278.19;6303764;28;20066;-85
2023/12/29 12:59:53;;;;;;;26.83;14.57;;;;;;;9.60;100.00;100279.66;6280518;28;20059;-82
2023/12/29 13:02:54;;;;;;;32.55;15.68;;;;;;;9.60;100.00;100277.03;6281137;28;20052;-85
2023/12/29 13:05:59;;;;;;;30.08;13.43;;;;;;;9.61;100.00;100286.53;6280962;28;20048;-88
2023/12/29 13:09:06;;;;;;;25.92;15.07;;;;;;;9.52;100.00;100281.00;6283464;28;20048;-81
2023/12/29 13:12:11;;;;;;;24.95;15.02;;;;;;;9.47;100.00;100282.06;6271366;28;20063;-91
2023/12/29 13:15:12;;;;;;;24.77;14.23;;;;;;;9.37;100.00;100288.69;6275328;28;20052;-80
2023/12/29 13:18:15;;;;;;;25.90;14.23;;;;;;;9.47;100.00;100286.41;6260584;28;20167;-89
2023/12/29 13:21:18;;;;;;;23.73;14.43;;;;;;;9.48;100.00;100293.31;6267283;28;20056;-81
2023/12/29 13:24:18;;;;;;;27.85;15.02;;;;;;;9.46;100.00;100295.16;6267212;28;20052;-88
2023/12/29 13:27:21;;;;;;;25.85;14.52;;;;;;;9.63;100.00;100299.47;6281863;28;20055;-88
2023/12/29 13:30:22;;;;;;;27.23;13.77;;;;;;;9.49;100.00;100305.41;6282350;28;20063;-89
2023/12/29 13:34:01;;;;;;;24.95;13.70;;;;;;;9.44;100.00;100310.88;6289396;28;20746;-81
2023/12/29 13:37:23;;;;;;;19.45;12.15;;;;;;;9.28;100.00;100309.97;6276805;28;20127;-82
2023/12/29 13:40:34;;;;;;;;;;;;;;;9.37;100.00;100298.25;6277988;28;20508;-88
2023/12/29 13:43:42;;;;;;;27.55;14.18;;;;;;;9.41;100.00;100302.38;6300838;28;19932;-81
2023/12/29 13:46:43;;;;;;;22.77;12.98;;;;;;;9.31;100.00;100298.56;6264112;28;20045;-82
2023/12/29 13:49:44;;;;;;;25.00;11.60;;;;;;;8.98;100.00;100308.03;6276545;28;20080;-80
2023/12/29 13:52:45;;;;;;;21.38;12.98;;;;;;;9.04;100.00;100299.91;6294797;28;20109;-83
2023/12/29 13:55:46;;;;;;;23.50;13.50;;;;;;;9.04;100.00;100299.06;6294846;28;20055;-86